Wales, Kentucky
Current Conditions -  °F | °C
As of 3:55 PM on Saturday 22 Nov 2014 (Local Time) from KPBX Reporting Station
Clear Clear  
Wind Chill: 59°   Ceiling: Unl
Heat Index: 59°   Visibility: 10mi
Dew Point: 23°   Wind: 5mph
Humidity: 25%   Direction: 190°S
Pressure: 30.21"   Gusts: NA
Location:  37.3022°N, 82.6547°W
Report Text: KPBX 222055Z AUTO 19004KT 10SM CLR 15/M05 A3021 RMK AO2 T01521048
Loading
Personal Weather Stations






























Interactive Weather Map New forecast layout! Learn more

10-Day Weather Forecast

Advertisements
Track Severe Weather on mobile